Time;durP1;ratioP1;P1;durP2;ratioP2;P2;SDS_P1;SDS_P2;PMS_P1;PMS_P2;Temp;Humidity;BMP_temperature;BMP_pressure;BME280_temperature;BME280_humidity;BME280_pressure;Samples;Min_cycle;Max_cycle;Signal;HPM_P1;HPM_P2
2023/01/29 00:02:18;;;;;;;35.63;23.67;;;0.50;99.90;;;;;;5050343;28;20322;-77
2023/01/29 00:04:44;;;;;;;39.50;25.13;;;0.50;99.90;;;;;;5049754;28;20599;-78
2023/01/29 00:07:10;;;;;;;39.63;26.73;;;0.50;99.90;;;;;;5049490;28;20625;-78
2023/01/29 00:09:35;;;;;;;38.73;26.23;;;0.50;99.90;;;;;;5049123;28;20595;-78
2023/01/29 00:12:01;;;;;;;36.63;25.00;;;0.50;99.90;;;;;;5049083;28;20642;-78
2023/01/29 00:14:27;;;;;;;39.47;24.27;;;0.50;99.90;;;;;;5050619;28;20235;-78
2023/01/29 00:16:53;;;;;;;41.63;24.20;;;0.40;99.90;;;;;;5052838;28;20248;-78
2023/01/29 00:19:19;;;;;;;35.85;23.20;;;0.50;99.90;;;;;;5052155;28;20721;-78
2023/01/29 00:21:45;;;;;;;34.10;22.53;;;0.50;99.90;;;;;;5051041;28;20205;-78
2023/01/29 00:24:11;;;;;;;39.78;25.33;;;0.50;99.90;;;;;;5049786;28;20587;-78
2023/01/29 00:26:41;;;;;;;35.10;23.80;;;0.50;99.90;;;;;;5050896;28;20254;-78
2023/01/29 00:29:07;;;;;;;36.63;22.80;;;0.50;99.90;;;;;;5051875;28;20173;-78
2023/01/29 00:31:33;;;;;;;40.43;25.17;;;0.50;99.90;;;;;;5056624;28;20173;-78
2023/01/29 00:33:59;;;;;;;37.78;22.05;;;0.50;99.90;;;;;;5049856;28;20598;-78
2023/01/29 00:36:25;;;;;;;36.40;22.70;;;0.50;99.90;;;;;;5049512;28;20649;-78
2023/01/29 00:38:59;;;;;;;42.72;23.33;;;0.50;99.90;;;;;;5050200;28;20200;-78
2023/01/29 00:46:59;;;;;;;32.25;21.50;;;0.50;99.90;;;;;;5036520;28;20173;-77
2023/01/29 00:49:25;;;;;;;31.83;21.43;;;0.50;99.90;;;;;;5019138;28;20526;-78
2023/01/29 00:54:36;;;;;;;37.63;22.88;;;0.50;99.90;;;;;;5055454;28;20243;-77
2023/01/29 00:57:03;;;;;;;32.28;20.50;;;0.40;99.90;;;;;;5053068;28;20609;-78
2023/01/29 00:59:29;;;;;;;33.78;21.25;;;0.40;99.90;;;;;;5051978;28;20173;-78
2023/01/29 01:04:39;;;;;;;35.30;21.17;;;0.40;99.90;;;;;;5052640;28;20172;-78
2023/01/29 01:07:05;;;;;;;36.77;22.03;;;0.40;99.90;;;;;;5019725;28;20586;-78
2023/01/29 01:12:15;;;;;;;39.65;23.02;;;0.30;99.90;;;;;;5053819;28;20283;-77
2023/01/29 01:14:42;;;;;;;35.73;22.40;;;0.30;99.90;;;;;;5051962;28;20286;-77
2023/01/29 01:17:08;;;;;;;33.97;21.85;;;0.30;99.90;;;;;;5054274;28;20205;-78
2023/01/29 01:19:34;;;;;;;33.92;21.17;;;0.30;99.90;;;;;;5053618;28;20223;-78
2023/01/29 01:22:00;;;;;;;33.13;21.70;;;0.30;99.90;;;;;;5053892;28;20173;-77
2023/01/29 01:24:27;;;;;;;31.30;21.10;;;0.30;99.90;;;;;;5052866;28;21229;-78
2023/01/29 01:26:52;;;;;;;32.30;20.23;;;0.20;99.90;;;;;;5036688;28;20771;-78
2023/01/29 01:29:18;;;;;;;32.47;21.40;;;0.30;99.90;;;;;;5052455;28;20609;-78
2023/01/29 01:31:44;;;;;;;36.27;20.83;;;0.30;99.90;;;;;;5055251;28;20619;-78
2023/01/29 01:34:10;;;;;;;32.60;22.23;;;0.30;99.90;;;;;;5054813;28;20169;-78
2023/01/29 01:36:36;;;;;;;33.67;20.80;;;0.30;99.90;;;;;;5053074;28;21202;-78
2023/01/29 01:39:02;;;;;;;35.60;22.73;;;0.30;99.90;;;;;;5052231;28;20584;-78
2023/01/29 01:41:29;;;;;;;32.97;20.70;;;0.30;99.90;;;;;;5052436;28;20617;-78
2023/01/29 01:44:01;;;;;;;28.67;19.90;;;0.30;99.90;;;;;;5053098;28;20260;-78
2023/01/29 01:46:34;;;;;;;33.83;21.65;;;0.30;99.90;;;;;;5051957;28;20193;-77
2023/01/29 01:49:14;;;;;;;35.75;21.63;;;0.30;99.90;;;;;;5053204;28;20667;-78
2023/01/29 01:51:46;;;;;;;34.65;22.15;;;0.20;99.90;;;;;;5051392;28;20258;-78
2023/01/29 01:54:30;;;;;;;31.70;21.75;;;0.20;99.90;;;;;;5052108;28;20211;-78
2023/01/29 01:57:08;;;;;;;35.38;24.30;;;0.20;99.90;;;;;;5034908;28;20180;-78
2023/01/29 01:59:37;;;;;;;38.22;23.65;;;0.20;99.90;;;;;;5034971;28;20172;-77
2023/01/29 02:10:20;;;;;;;36.05;22.73;;;0.20;99.90;;;;;;5039812;28;20177;-77
2023/01/29 02:12:46;;;;;;;37.40;23.63;;;0.20;99.90;;;;;;5033963;28;20209;-78
2023/01/29 02:15:14;;;;;;;38.03;22.65;;;0.20;99.90;;;;;;5018154;28;20270;-78
2023/01/29 02:17:40;;;;;;;34.50;24.20;;;0.20;99.90;;;;;;5051101;28;20614;-78
2023/01/29 02:20:18;;;;;;;35.57;23.93;;;0.20;99.90;;;;;;5050574;28;20215;-78
2023/01/29 02:22:54;;;;;;;37.08;24.15;;;0.30;99.90;;;;;;5050623;28;20185;-78
2023/01/29 02:25:33;;;;;;;39.08;23.55;;;0.30;99.90;;;;;;5050872;28;20247;-78
2023/01/29 02:28:10;;;;;;;42.55;24.60;;;0.30;99.90;;;;;;5050780;28;20651;-78
2023/01/29 02:30:54;;;;;;;33.72;20.00;;;0.30;99.90;;;;;;5033757;28;20652;-78
2023/01/29 02:33:39;;;;;;;36.60;23.83;;;0.30;99.90;;;;;;5050439;28;20204;-78
2023/01/29 02:36:33;;;;;;;35.88;22.15;;;0.30;99.90;;;;;;5034282;28;20238;-78
2023/01/29 02:39:03;;;;;;;36.20;22.67;;;0.20;99.90;;;;;;5050229;28;20181;-78
2023/01/29 02:41:43;;;;;;;42.00;22.85;;;0.20;99.90;;;;;;5036770;28;20180;-78
2023/01/29 02:44:18;;;;;;;34.67;21.30;;;0.20;99.90;;;;;;5045442;28;20195;-78
2023/01/29 02:46:54;;;;;;;34.70;22.60;;;0.20;99.90;;;;;;5073216;28;20192;-78
2023/01/29 02:49:27;;;;;;;33.55;22.92;;;0.10;99.90;;;;;;5060374;28;20211;-78
2023/01/29 02:52:12;;;;;;;34.15;22.45;;;0.10;99.90;;;;;;5070375;28;20207;-78
2023/01/29 02:54:50;;;;;;;37.42;22.85;;;0.10;99.90;;;;;;5055253;28;20570;-78
2023/01/29 02:57:22;;;;;;;37.50;23.92;;;0.10;99.90;;;;;;5042233;28;20200;-78
2023/01/29 02:59:56;;;;;;;36.63;23.27;;;0.10;99.90;;;;;;5013529;28;20248;-78
2023/01/29 03:02:31;;;;;;;36.45;22.25;;;0.10;99.90;;;;;;5013716;28;20808;-78
2023/01/29 03:05:01;;;;;;;33.80;21.70;;;0.10;99.90;;;;;;5013870;28;20204;-79
2023/01/29 03:07:41;;;;;;;34.83;23.05;;;0.10;99.90;;;;;;5030462;28;20177;-78
2023/01/29 03:10:29;;;;;;;34.42;20.10;;;0.10;99.90;;;;;;5030901;28;20582;-78
2023/01/29 03:13:22;;;;;;;32.10;20.90;;;0.00;99.90;;;;;;5042029;28;20283;-79
2023/01/29 03:16:00;;;;;;;31.80;22.27;;;0.00;99.90;;;;;;5040588;28;20227;-78
2023/01/29 03:18:52;;;;;;;36.47;21.98;;;0.00;99.90;;;;;;5033573;28;20179;-77
2023/01/29 03:21:50;;;;;;;31.75;20.35;;;0.00;99.90;;;;;;5051184;28;20181;-79
2023/01/29 03:33:13;;;;;;;40.03;23.13;;;0.00;99.90;;;;;;5051091;28;20224;-78
2023/01/29 03:36:01;;;;;;;32.53;21.67;;;-0.10;99.90;;;;;;5018340;28;20196;-77
2023/01/29 03:38:30;;;;;;;35.10;21.60;;;-0.10;99.90;;;;;;5050357;28;20165;-78
2023/01/29 03:41:49;;;;;;;35.75;20.77;;;-0.10;99.90;;;;;;5050159;28;20177;-78
2023/01/29 03:44:23;;;;;;;35.40;22.67;;;-0.10;99.90;;;;;;5017535;28;20189;-78
2023/01/29 03:47:13;;;;;;;29.85;19.95;;;-0.10;99.90;;;;;;5033438;28;20179;-79
2023/01/29 03:49:48;;;;;;;34.30;21.45;;;-0.10;99.90;;;;;;5016874;28;20638;-78
2023/01/29 03:52:40;;;;;;;31.48;20.55;;;-0.10;99.90;;;;;;5049373;28;20294;-78
2023/01/29 03:55:17;;;;;;;31.65;19.52;;;-0.20;99.90;;;;;;5050833;28;20193;-78
2023/01/29 03:57:58;;;;;;;33.90;22.38;;;-0.20;99.90;;;;;;5049602;28;20173;-78
2023/01/29 04:00:53;;;;;;;37.20;22.98;;;-0.20;99.90;;;;;;5034123;28;20172;-78
2023/01/29 04:03:21;;;;;;;31.60;20.75;;;-0.20;99.90;;;;;;5032301;28;20181;-78
2023/01/29 04:05:57;;;;;;;29.65;20.23;;;-0.20;99.90;;;;;;5049474;28;20203;-78
2023/01/29 04:08:32;;;;;;;34.72;21.73;;;-0.20;99.90;;;;;;5049188;28;20254;-78
2023/01/29 04:11:11;;;;;;;30.98;20.83;;;-0.20;99.90;;;;;;5033175;28;20177;-78
2023/01/29 04:13:38;;;;;;;37.28;22.95;;;-0.20;99.90;;;;;;5032598;28;20243;-78
2023/01/29 04:16:09;;;;;;;30.80;21.05;;;-0.30;99.90;;;;;;5049337;28;20204;-78
2023/01/29 04:18:58;;;;;;;29.45;20.73;;;-0.20;99.90;;;;;;5047711;28;20188;-78
2023/01/29 04:21:31;;;;;;;29.52;20.33;;;-0.20;99.90;;;;;;5052633;28;20185;-78
2023/01/29 04:23:58;;;;;;;32.80;20.42;;;-0.20;99.90;;;;;;5036588;28;20196;-78
2023/01/29 04:26:44;;;;;;;32.63;20.70;;;-0.20;99.90;;;;;;5053490;28;20236;-78
2023/01/29 04:29:25;;;;;;;36.03;21.25;;;-0.20;99.90;;;;;;5052604;28;20173;-80
2023/01/29 04:32:12;;;;;;;33.90;20.13;;;-0.20;99.90;;;;;;5036521;28;20196;-80
2023/01/29 04:34:54;;;;;;;33.65;23.20;;;-0.20;99.90;;;;;;5053135;28;20591;-79
2023/01/29 04:37:34;;;;;;;33.30;21.63;;;-0.30;99.90;;;;;;5020438;28;20660;-81
2023/01/29 04:40:30;;;;;;;30.30;20.33;;;-0.20;99.90;;;;;;5056851;28;20177;-80
2023/01/29 04:43:16;;;;;;;36.92;22.15;;;-0.30;99.90;;;;;;5053010;28;20180;-80
2023/01/29 04:45:55;;;;;;;30.40;20.48;;;-0.20;99.90;;;;;;5054172;28;20215;-80
2023/01/29 04:48:44;;;;;;;33.22;20.90;;;-0.30;99.90;;;;;;5053190;28;20337;-80
2023/01/29 04:51:41;;;;;;;29.70;20.05;;;-0.30;99.90;;;;;;5052375;28;20267;-80
2023/01/29 04:54:18;;;;;;;34.88;21.85;;;-0.30;99.90;;;;;;5054658;28;20185;-80
2023/01/29 04:56:56;;;;;;;34.78;22.08;;;-0.30;99.90;;;;;;5052512;28;20216;-80
2023/01/29 04:59:35;;;;;;;35.88;21.55;;;-0.30;99.90;;;;;;5053942;28;20587;-80
2023/01/29 05:02:01;;;;;;;35.30;22.83;;;-0.30;99.90;;;;;;5053720;28;20810;-80
2023/01/29 05:04:31;;;;;;;32.75;21.17;;;-0.30;99.90;;;;;;5052804;28;20223;-80
2023/01/29 05:07:01;;;;;;;35.25;20.65;;;-0.30;99.90;;;;;;5053915;28;20196;-81
2023/01/29 05:09:27;;;;;;;42.92;25.15;;;-0.30;99.90;;;;;;5053796;28;20855;-80
2023/01/29 05:11:54;;;;;;;37.60;24.85;;;-0.30;99.90;;;;;;5054549;28;20303;-80
2023/01/29 05:14:22;;;;;;;34.90;22.33;;;-0.30;99.90;;;;;;5054089;28;20243;-80
2023/01/29 05:16:52;;;;;;;38.53;24.85;;;-0.30;99.90;;;;;;5057093;28;20539;-80
2023/01/29 05:19:18;;;;;;;36.92;24.10;;;-0.30;99.90;;;;;;5053032;28;20165;-80
2023/01/29 05:21:46;;;;;;;41.72;26.65;;;-0.30;99.90;;;;;;5053397;28;20267;-79
2023/01/29 05:24:21;;;;;;;33.85;21.88;;;-0.20;99.90;;;;;;5052412;28;20617;-79
2023/01/29 05:29:33;;;;;;;38.75;25.75;;;-0.20;99.90;;;;;;5053257;28;20248;-80
2023/01/29 05:31:59;;;;;;;40.00;24.97;;;-0.20;99.90;;;;;;5051299;28;20779;-79
2023/01/29 05:34:25;;;;;;;41.73;25.33;;;-0.20;99.90;;;;;;5052109;28;20204;-79
2023/01/29 05:36:50;;;;;;;42.60;24.87;;;-0.20;99.90;;;;;;5053220;28;20187;-79
2023/01/29 05:39:16;;;;;;;41.87;27.00;;;-0.30;99.90;;;;;;5052946;28;20264;-79
2023/01/29 05:41:42;;;;;;;34.37;23.80;;;-0.30;99.90;;;;;;5051736;28;20166;-79
2023/01/29 05:44:11;;;;;;;44.57;26.00;;;-0.30;99.90;;;;;;5053006;28;20578;-80
2023/01/29 05:46:37;;;;;;;39.85;27.35;;;-0.30;99.90;;;;;;5051814;28;20604;-79
2023/01/29 05:49:04;;;;;;;33.55;22.45;;;-0.30;99.90;;;;;;5052561;28;20632;-79
2023/01/29 05:51:30;;;;;;;35.05;21.83;;;-0.30;99.90;;;;;;5052004;28;20172;-80
2023/01/29 05:53:56;;;;;;;41.00;25.73;;;-0.30;99.90;;;;;;5055685;28;20793;-79
2023/01/29 05:56:25;;;;;;;39.20;24.25;;;-0.30;99.90;;;;;;5053435;28;20281;-79
2023/01/29 05:58:51;;;;;;;34.03;21.90;;;-0.30;99.90;;;;;;5052350;28;20275;-79
2023/01/29 06:01:20;;;;;;;31.90;19.48;;;-0.30;99.90;;;;;;5052587;28;20674;-79
2023/01/29 06:03:46;;;;;;;31.35;19.38;;;-0.30;99.90;;;;;;5034316;28;20548;-79
2023/01/29 06:06:12;;;;;;;33.57;19.70;;;-0.30;99.90;;;;;;5053120;28;20189;-79
2023/01/29 06:08:38;;;;;;;32.08;23.65;;;-0.30;99.90;;;;;;5052091;28;20578;-79
2023/01/29 06:11:07;;;;;;;32.40;21.40;;;-0.20;99.90;;;;;;5052614;28;20629;-79
2023/01/29 06:13:33;;;;;;;31.80;20.52;;;-0.20;99.90;;;;;;5052543;28;20619;-79
2023/01/29 06:15:59;;;;;;;31.77;20.70;;;-0.30;99.90;;;;;;5034133;28;20774;-79
2023/01/29 06:18:25;;;;;;;30.40;19.20;;;-0.20;99.90;;;;;;5052511;28;20255;-78
2023/01/29 06:20:51;;;;;;;41.60;23.67;;;-0.20;99.90;;;;;;5051988;28;20171;-79
2023/01/29 06:23:16;;;;;;;43.67;26.80;;;-0.30;99.90;;;;;;5052096;28;20169;-78
2023/01/29 06:25:42;;;;;;;31.07;20.57;;;-0.30;99.90;;;;;;5050735;28;20196;-79
2023/01/29 06:28:08;;;;;;;35.23;22.07;;;-0.30;99.90;;;;;;5051097;28;20181;-79
2023/01/29 06:30:33;;;;;;;27.37;18.37;;;-0.40;99.90;;;;;;5057594;28;20532;-79
2023/01/29 06:33:00;;;;;;;34.47;22.23;;;-0.40;99.90;;;;;;5051381;28;20216;-79
2023/01/29 06:35:27;;;;;;;34.83;21.52;;;-0.30;99.90;;;;;;5050757;28;20584;-79
2023/01/29 06:37:53;;;;;;;32.03;21.75;;;-0.40;99.90;;;;;;5051004;28;20533;-78
2023/01/29 06:40:19;;;;;;;35.13;22.83;;;-0.40;99.90;;;;;;5033680;28;20284;-78
2023/01/29 06:42:45;;;;;;;31.73;21.30;;;-0.40;99.90;;;;;;5051078;28;20640;-78
2023/01/29 06:45:10;;;;;;;29.57;18.77;;;-0.40;99.90;;;;;;5051647;28;20602;-79
2023/01/29 06:47:36;;;;;;;33.90;19.33;;;-0.40;99.90;;;;;;5051896;28;20204;-78
2023/01/29 06:50:02;;;;;;;32.23;19.60;;;-0.40;99.90;;;;;;5033684;28;20629;-78
2023/01/29 06:52:28;;;;;;;30.33;17.40;;;-0.40;99.90;;;;;;5050015;28;20204;-78
2023/01/29 06:54:57;;;;;;;35.28;20.83;;;-0.40;99.90;;;;;;5051747;28;20189;-78
2023/01/29 06:57:23;;;;;;;32.95;18.85;;;-0.40;99.90;;;;;;5051480;28;20161;-78
2023/01/29 06:59:48;;;;;;;31.43;19.80;;;-0.40;99.90;;;;;;5050251;28;20280;-78
2023/01/29 07:02:15;;;;;;;38.07;24.00;;;-0.30;99.90;;;;;;5033073;28;20579;-78
2023/01/29 07:04:41;;;;;;;34.75;22.05;;;-0.40;99.90;;;;;;5051645;28;20660;-79
2023/01/29 07:07:12;;;;;;;38.40;22.58;;;-0.30;99.90;;;;;;5052226;28;20177;-78
2023/01/29 07:09:41;;;;;;;36.10;22.52;;;-0.30;99.90;;;;;;5054460;28;20169;-78
2023/01/29 07:12:08;;;;;;;34.63;22.60;;;-0.30;99.90;;;;;;5049921;28;20197;-78
2023/01/29 07:14:34;;;;;;;31.15;20.67;;;-0.30;99.90;;;;;;5051612;28;20215;-78
2023/01/29 07:17:00;;;;;;;34.83;21.37;;;-0.20;99.90;;;;;;5049928;28;20176;-78
2023/01/29 07:19:27;;;;;;;32.47;20.20;;;-0.20;99.90;;;;;;5051345;28;20701;-78
2023/01/29 07:21:53;;;;;;;28.80;19.23;;;-0.20;99.90;;;;;;5050969;28;20256;-78
2023/01/29 07:24:18;;;;;;;31.17;18.03;;;-0.10;99.90;;;;;;5050209;28;20592;-78
2023/01/29 07:26:45;;;;;;;30.67;18.43;;;-0.10;99.90;;;;;;5033766;28;20251;-79
2023/01/29 07:29:10;;;;;;;32.13;20.45;;;0.00;99.90;;;;;;5049717;28;20222;-79
2023/01/29 07:31:36;;;;;;;32.30;20.83;;;0.00;99.90;;;;;;5049596;28;20263;-79
2023/01/29 07:34:02;;;;;;;27.10;19.57;;;0.10;99.90;;;;;;5050074;28;20655;-79
2023/01/29 07:36:28;;;;;;;34.55;22.83;;;0.20;99.90;;;;;;5033494;28;20197;-79
2023/01/29 07:38:54;;;;;;;35.42;23.88;;;0.20;99.90;;;;;;5050852;28;20161;-79
2023/01/29 07:41:20;;;;;;;36.87;22.27;;;0.20;99.90;;;;;;5049797;28;20184;-79
2023/01/29 07:43:46;;;;;;;32.72;20.88;;;0.30;99.90;;;;;;5032943;28;20183;-79
2023/01/29 07:46:12;;;;;;;40.92;26.13;;;0.30;99.90;;;;;;5053118;28;20681;-79
2023/01/29 07:48:38;;;;;;;35.07;23.50;;;0.30;99.90;;;;;;5047988;28;20195;-80
2023/01/29 07:51:04;;;;;;;36.90;23.30;;;0.30;99.90;;;;;;5063997;28;20226;-79
2023/01/29 07:53:30;;;;;;;36.97;24.83;;;0.30;99.90;;;;;;5071023;28;20204;-78
2023/01/29 07:55:56;;;;;;;36.90;24.27;;;0.30;99.90;;;;;;5076679;28;20241;-78
2023/01/29 07:58:21;;;;;;;34.83;22.80;;;0.40;99.90;;;;;;5078207;28;20574;-78
2023/01/29 08:00:47;;;;;;;37.10;24.40;;;0.40;99.90;;;;;;5075948;28;21320;-77
2023/01/29 08:03:15;;;;;;;36.60;22.40;;;0.40;99.90;;;;;;5076465;28;20175;-77
2023/01/29 08:05:42;;;;;;;31.33;20.00;;;0.40;99.90;;;;;;5077245;28;20203;-78
2023/01/29 08:08:08;;;;;;;36.25;22.70;;;0.40;99.90;;;;;;5076155;28;20176;-78
2023/01/29 08:10:35;;;;;;;35.20;22.63;;;0.50;99.90;;;;;;5075307;28;20301;-78
2023/01/29 08:13:01;;;;;;;33.20;20.75;;;0.50;99.90;;;;;;5076067;28;20252;-78
2023/01/29 08:15:28;;;;;;;30.65;23.00;;;0.50;99.90;;;;;;5077120;28;20199;-76
2023/01/29 08:17:54;;;;;;;38.75;23.65;;;0.60;99.90;;;;;;5077627;28;20187;-76
2023/01/29 08:20:20;;;;;;;37.10;22.80;;;0.60;99.90;;;;;;5042445;28;20164;-76
2023/01/29 08:22:46;;;;;;;33.83;20.63;;;0.60;99.90;;;;;;5081050;28;20995;-76
2023/01/29 08:25:13;;;;;;;28.10;18.70;;;0.70;99.90;;;;;;5077273;28;20644;-77
2023/01/29 08:27:39;;;;;;;32.08;22.00;;;0.70;99.90;;;;;;5077697;28;20176;-76
2023/01/29 08:30:06;;;;;;;29.83;20.88;;;0.80;99.90;;;;;;5076441;28;20625;-78
2023/01/29 08:32:32;;;;;;;43.35;26.50;;;0.80;99.90;;;;;;5077196;28;20703;-78
2023/01/29 08:34:58;;;;;;;30.67;21.10;;;0.90;99.90;;;;;;5077565;28;20264;-78
2023/01/29 08:37:23;;;;;;;31.83;20.17;;;1.00;99.90;;;;;;5075951;28;20179;-78
2023/01/29 08:39:49;;;;;;;29.33;19.30;;;1.10;99.90;;;;;;5077065;28;20190;-77
2023/01/29 08:42:15;;;;;;;29.60;19.63;;;1.10;99.90;;;;;;5075761;28;20671;-77
2023/01/29 08:44:40;;;;;;;34.27;21.53;;;1.20;99.90;;;;;;5077700;28;20172;-78
2023/01/29 08:47:06;;;;;;;31.77;20.53;;;1.30;99.90;;;;;;5077400;28;20172;-78
2023/01/29 08:49:32;;;;;;;33.75;21.10;;;1.30;99.90;;;;;;5077400;28;20164;-77
2023/01/29 08:51:58;;;;;;;29.37;20.07;;;1.40;99.90;;;;;;5075263;28;20291;-77
2023/01/29 08:54:24;;;;;;;31.33;21.17;;;1.40;99.90;;;;;;5076912;28;20175;-78
2023/01/29 08:56:50;;;;;;;29.83;19.70;;;1.50;99.90;;;;;;5061009;28;20171;-79
2023/01/29 08:59:16;;;;;;;28.92;19.90;;;1.50;99.90;;;;;;5056716;28;20177;-77
2023/01/29 09:01:41;;;;;;;33.90;22.43;;;1.50;99.90;;;;;;5058791;28;20636;-77
2023/01/29 09:04:07;;;;;;;28.77;20.23;;;1.50;99.90;;;;;;5034704;28;20268;-77
2023/01/29 09:06:33;;;;;;;33.17;22.03;;;1.50;99.90;;;;;;5036805;28;20204;-77
2023/01/29 09:08:59;;;;;;;35.45;23.98;;;1.50;99.90;;;;;;5052648;28;20187;-77
2023/01/29 09:11:25;;;;;;;39.07;24.90;;;1.60;99.90;;;;;;5053964;28;20252;-78
2023/01/29 09:13:50;;;;;;;31.20;21.47;;;1.60;99.90;;;;;;5054034;28;20893;-78
2023/01/29 09:16:16;;;;;;;35.57;22.27;;;1.60;99.90;;;;;;5052759;28;20733;-78
2023/01/29 09:18:42;;;;;;;33.80;21.60;;;1.60;99.90;;;;;;5051817;28;20635;-77
2023/01/29 09:21:08;;;;;;;28.60;18.50;;;1.70;99.90;;;;;;5052501;28;20203;-77
2023/01/29 09:23:34;;;;;;;31.20;21.27;;;1.70;99.90;;;;;;5053949;28;20586;-78
2023/01/29 09:25:59;;;;;;;25.70;16.73;;;1.80;99.90;;;;;;5051339;28;20599;-78
2023/01/29 09:28:25;;;;;;;28.73;19.33;;;1.90;99.90;;;;;;5048816;28;20673;-78
2023/01/29 09:30:51;;;;;;;28.63;19.00;;;1.90;99.90;;;;;;5052088;28;20173;-78
2023/01/29 09:33:17;;;;;;;31.70;20.80;;;1.90;99.90;;;;;;5052934;28;20200;-78
2023/01/29 09:35:45;;;;;;;30.83;20.75;;;1.90;99.90;;;;;;5053903;28;20600;-77
2023/01/29 09:38:11;;;;;;;24.63;18.05;;;1.90;99.90;;;;;;5056959;28;20177;-77
2023/01/29 09:41:04;;;;;;;29.70;18.40;;;2.00;99.90;;;;;;5053059;28;20176;-77
2023/01/29 09:43:33;;;;;;;29.00;19.55;;;2.10;99.90;;;;;;5051918;28;20188;-77
2023/01/29 09:46:03;;;;;;;31.10;21.13;;;2.20;99.90;;;;;;5053272;28;20672;-77
2023/01/29 09:48:32;;;;;;;32.92;23.00;;;2.30;99.90;;;;;;5052258;28;20181;-77
2023/01/29 09:51:02;;;;;;;32.28;22.05;;;2.40;99.90;;;;;;5051716;28;20192;-76
2023/01/29 09:53:45;;;;;;;32.10;22.63;;;2.40;99.90;;;;;;5052942;28;20197;-77
2023/01/29 09:56:21;;;;;;;35.65;24.48;;;2.50;99.90;;;;;;5051452;28;20187;-78
2023/01/29 09:58:47;;;;;;;33.40;21.27;;;2.50;99.90;;;;;;5052780;28;20191;-77
2023/01/29 10:01:31;;;;;;;32.20;20.80;;;2.60;99.90;;;;;;5052529;28;20525;-77
2023/01/29 10:04:30;;;;;;;30.70;21.25;;;2.60;99.90;;;;;;5052187;28;20181;-77
2023/01/29 10:07:18;;;;;;;32.55;21.60;;;2.70;99.90;;;;;;5054411;28;20184;-77
2023/01/29 10:10:06;;;;;;;34.13;22.33;;;2.80;99.90;;;;;;5052397;28;20208;-78
2023/01/29 10:12:41;;;;;;;33.95;23.13;;;2.90;99.90;;;;;;5052252;28;20239;-78
2023/01/29 10:15:31;;;;;;;34.83;23.40;;;2.90;99.90;;;;;;5049322;28;20254;-78
2023/01/29 10:18:27;;;;;;;40.80;24.75;;;2.80;99.90;;;;;;5068054;28;20168;-77
2023/01/29 10:21:14;;;;;;;34.00;23.55;;;2.90;99.90;;;;;;5074258;28;20241;-79
2023/01/29 10:23:48;;;;;;;32.83;22.88;;;2.90;99.90;;;;;;5074414;28;20173;-79
2023/01/29 10:26:14;;;;;;;29.88;21.92;;;2.90;99.90;;;;;;5059882;28;20299;-78
2023/01/29 10:28:47;;;;;;;34.10;24.20;;;3.00;99.90;;;;;;5057431;28;20196;-77
2023/01/29 10:31:31;;;;;;;32.45;22.15;;;3.00;99.90;;;;;;5051126;28;20180;-76
2023/01/29 10:34:03;;;;;;;31.80;21.63;;;3.00;99.90;;;;;;5051420;28;20200;-75
2023/01/29 10:36:42;;;;;;;30.45;20.98;;;3.10;99.90;;;;;;5051893;28;20218;-76
2023/01/29 10:39:19;;;;;;;35.13;25.02;;;3.20;99.90;;;;;;5050145;28;20200;-76
2023/01/29 10:42:22;;;;;;;32.38;23.33;;;3.30;99.90;;;;;;5037489;28;20652;-79
2023/01/29 10:44:55;;;;;;;29.65;20.40;;;3.30;99.90;;;;;;5034770;28;20284;-79
2023/01/29 10:47:47;;;;;;;27.73;20.80;;;3.30;99.90;;;;;;5033397;28;20170;-78
2023/01/29 10:51:13;;;;;;;33.03;22.63;;;3.40;99.90;;;;;;5032500;28;20212;-78
2023/01/29 10:54:13;;;;;;;29.30;21.35;;;3.50;99.90;;;;;;4995990;28;20227;-79
2023/01/29 10:57:09;;;;;;;35.97;24.30;;;3.60;99.90;;;;;;4992802;28;20195;-78
2023/01/29 11:00:11;;;;;;;37.20;24.65;;;3.50;99.90;;;;;;5031351;28;20268;-79
2023/01/29 11:02:47;;;;;;;34.88;23.35;;;3.40;99.90;;;;;;5034110;28;20169;-79
2023/01/29 11:05:22;;;;;;;37.80;23.65;;;3.40;99.90;;;;;;5049698;28;20600;-78
2023/01/29 11:08:20;;;;;;;32.92;21.52;;;3.30;99.90;;;;;;5037217;28;20177;-78
2023/01/29 11:11:08;;;;;;;30.55;21.98;;;3.40;99.90;;;;;;5042327;28;20350;-78
2023/01/29 11:13:57;;;;;;;35.78;23.23;;;3.40;99.90;;;;;;5051889;28;20243;-78
2023/01/29 11:16:23;;;;;;;27.80;18.52;;;3.40;99.90;;;;;;5050547;28;20301;-78
2023/01/29 11:18:50;;;;;;;33.33;23.00;;;3.50;99.90;;;;;;5050956;28;20229;-78
2023/01/29 11:21:16;;;;;;;29.73;21.30;;;3.60;99.90;;;;;;5051227;28;20259;-78
2023/01/29 11:23:41;;;;;;;35.20;23.53;;;3.60;99.90;;;;;;5050903;28;20272;-78
2023/01/29 11:26:10;;;;;;;38.70;25.33;;;3.70;99.90;;;;;;5053824;28;20619;-79
2023/01/29 11:28:44;;;;;;;36.10;27.10;;;3.70;99.90;;;;;;5061883;28;20210;-79
2023/01/29 11:31:24;;;;;;;32.35;22.38;;;3.60;99.90;;;;;;5054666;28;20176;-79
2023/01/29 11:34:00;;;;;;;33.88;21.38;;;3.60;99.90;;;;;;5062897;28;20207;-78
2023/01/29 11:36:33;;;;;;;32.17;22.40;;;3.70;99.90;;;;;;5061428;28;20231;-79
2023/01/29 11:39:21;;;;;;;27.38;19.83;;;3.90;99.90;;;;;;5049812;28;20184;-80
2023/01/29 11:42:04;;;;;;;36.10;24.83;;;4.00;99.90;;;;;;5053938;28;20176;-79
2023/01/29 11:44:40;;;;;;;41.63;27.48;;;4.20;99.90;;;;;;5069637;28;20191;-80
2023/01/29 11:47:23;;;;;;;31.13;22.55;;;4.10;99.90;;;;;;5065645;28;20264;-80
2023/01/29 11:49:54;;;;;;;32.35;22.30;;;4.10;99.90;;;;;;5048988;28;20254;-80
2023/01/29 11:52:22;;;;;;;31.85;22.20;;;4.10;99.90;;;;;;5048731;28;20322;-79
2023/01/29 11:55:21;;;;;;;30.50;21.77;;;4.10;99.90;;;;;;5049385;28;20193;-80
2023/01/29 11:57:58;;;;;;;37.30;25.65;;;4.10;99.90;;;;;;5049346;28;20165;-79
2023/01/29 12:00:28;;;;;;;29.85;21.55;;;4.10;99.90;;;;;;5040381;28;20187;-79
2023/01/29 12:03:10;;;;;;;34.42;24.40;;;4.10;99.90;;;;;;5063666;28;20172;-79
2023/01/29 12:05:39;;;;;;;31.73;23.02;;;4.20;99.90;;;;;;5069404;28;20675;-80
2023/01/29 12:08:15;;;;;;;37.65;24.88;;;4.20;99.90;;;;;;5074201;28;20518;-79
2023/01/29 12:10:42;;;;;;;32.85;22.50;;;4.20;99.90;;;;;;5069535;28;20215;-79
2023/01/29 12:13:19;;;;;;;33.50;23.00;;;4.20;99.90;;;;;;5055054;28;20212;-80
2023/01/29 12:15:46;;;;;;;30.73;22.05;;;4.30;99.90;;;;;;5049384;28;20200;-80
2023/01/29 12:18:35;;;;;;;33.80;22.75;;;4.30;99.90;;;;;;5032733;28;20181;-79
2023/01/29 12:21:03;;;;;;;32.35;23.08;;;4.30;99.90;;;;;;5048156;28;20173;-79
2023/01/29 12:23:39;;;;;;;32.17;21.75;;;4.40;99.90;;;;;;5032942;28;20182;-80
2023/01/29 12:26:17;;;;;;;29.00;22.27;;;4.60;99.90;;;;;;5030597;28;20192;-80
2023/01/29 12:29:20;;;;;;;37.90;27.02;;;4.60;99.90;;;;;;5029434;28;20761;-80
2023/01/29 12:32:23;;;;;;;30.58;21.45;;;4.60;99.90;;;;;;5028999;28;20240;-79
2023/01/29 12:34:52;;;;;;;32.28;21.13;;;4.50;99.90;;;;;;5030008;28;20539;-78
2023/01/29 12:37:34;;;;;;;34.63;25.40;;;4.50;99.90;;;;;;5030913;28;20162;-80
2023/01/29 12:40:01;;;;;;;36.40;23.70;;;4.50;99.90;;;;;;5028701;28;20169;-79
2023/01/29 12:42:27;;;;;;;33.95;24.42;;;4.50;99.90;;;;;;5049486;28;20186;-80
2023/01/29 12:45:00;;;;;;;34.40;23.73;;;4.50;99.90;;;;;;5040230;28;20661;-79
2023/01/29 12:47:41;;;;;;;33.90;22.65;;;4.50;99.90;;;;;;5052947;28;21077;-81
2023/01/29 12:50:22;;;;;;;37.20;24.80;;;4.50;99.90;;;;;;5036526;28;20212;-80
2023/01/29 12:52:54;;;;;;;32.55;22.20;;;4.60;99.90;;;;;;5053906;28;20203;-80
2023/01/29 12:55:47;;;;;;;30.40;21.17;;;4.60;99.90;;;;;;5053350;28;20736;-80
2023/01/29 12:58:31;;;;;;;31.27;21.70;;;4.60;99.90;;;;;;5053892;28;20648;-80
2023/01/29 13:01:03;;;;;;;33.30;24.88;;;4.70;99.90;;;;;;5054577;28;20176;-80
2023/01/29 13:04:00;;;;;;;34.33;24.20;;;4.80;99.90;;;;;;5053878;28;20191;-80
2023/01/29 13:06:35;;;;;;;28.58;21.17;;;4.70;99.90;;;;;;5031346;28;20212;-80
2023/01/29 13:09:05;;;;;;;25.70;20.73;;;4.90;99.90;;;;;;5054970;28;20180;-78
2023/01/29 13:11:46;;;;;;;27.30;19.52;;;5.00;99.90;;;;;;5053642;28;20665;-79
2023/01/29 13:14:19;;;;;;;29.42;19.55;;;5.10;99.90;;;;;;5053957;28;20190;-78
2023/01/29 13:16:49;;;;;;;24.08;19.58;;;5.30;99.90;;;;;;5034281;28;20205;-78
2023/01/29 13:19:30;;;;;;;30.35;20.13;;;5.40;99.90;;;;;;5053635;28;20195;-77
2023/01/29 13:22:00;;;;;;;26.20;18.33;;;5.60;99.90;;;;;;5057126;28;20740;-78
2023/01/29 13:24:38;;;;;;;29.65;21.13;;;5.80;99.90;;;;;;5052860;28;20193;-79
2023/01/29 13:27:04;;;;;;;31.38;21.55;;;5.90;99.90;;;;;;5053299;28;20181;-78
2023/01/29 13:29:31;;;;;;;32.90;21.70;;;5.90;99.90;;;;;;5051817;28;20189;-78
2023/01/29 13:32:02;;;;;;;30.58;21.25;;;5.90;99.90;;;;;;5053104;28;20536;-77
2023/01/29 13:34:42;;;;;;;29.23;20.30;;;5.90;99.90;;;;;;5053390;28;20663;-78
2023/01/29 13:37:19;;;;;;;29.73;21.05;;;5.90;99.90;;;;;;5053671;28;20191;-80